Buoy 46562

sailwx.info

Track history (hours):
 
Tides and Currents Weather Stations Pressure Air Temp Water Temp Dewpoint Dewpoint Depression Visibility Wind Speed Wind Dir Waves Ship Positions

Drifting buoy 46562

Last reported at 2014-Sep-22 16:00 UTC. Time now 2014-Sep-22 18:20 UTC.
Position N 59°44' W 148°05'.

Water temperature 13.0 ° C

Date/timePositionNaut miles runAvg speedWind from/ knotsBaromVisibWave heightAir tempDewpointWater temp
2014-Sep-22 16:00N 59°44' W 148°05'4 3.8 13.0
2014-Sep-22 15:00N 59°42' W 147°59'2 2.5 12.9
2014-Sep-22 14:00N 59°42' W 147°54'0 0.2 12.7
2014-Sep-22 13:00N 59°42' W 147°54'0 0.1 12.7
2014-Sep-22 12:00N 59°42' W 147°54'1 1.2 12.7
2014-Sep-22 11:00N 59°43' W 147°52'1 0.4 12.8
2014-Sep-22 08:00N 59°42' W 147°51'3 0.9 12.9
2014-Sep-22 04:00N 59°42' W 147°44'0 0.0 13.1
2014-Sep-22 02:00N 59°42' W 147°44'1 1.2 13.1
2014-Sep-22 01:00N 59°42' W 147°42'0 0.3 13.2
2014-Sep-22 00:00N 59°42' W 147°42'0 0.5 13.2
2014-Sep-21 23:00N 59°43' W 147°42'1 1.3 13.2
2014-Sep-21 22:00N 59°42' W 147°44'0 0.4 13.1
2014-Sep-21 21:00N 59°42' W 147°45'5 2.3 13.0
2014-Sep-21 19:00N 59°38' W 147°42'0 0.1 12.9
2014-Sep-21 18:00N 59°38' W 147°42'1 0.9 13.0
2014-Sep-21 17:00N 59°37' W 147°41'0 0.1 13.0
2014-Sep-21 16:00N 59°37' W 147°41'3 2.9 12.9
2014-Sep-21 15:00N 59°37' W 147°35'2 2.1 12.9
2014-Sep-21 14:00N 59°38' W 147°31'1 1.3 12.9
2014-Sep-21 13:00N 59°39' W 147°29'0 0.5 13.0
2014-Sep-21 12:00N 59°38' W 147°28'9 1.5 13.0
2014-Sep-21 06:00N 59°44' W 147°13'2 1.8 13.1
2014-Sep-21 05:00N 59°44' W 147°10'1 0.6 13.1
2014-Sep-21 03:00N 59°45' W 147°08'1 1.2 13.1
2014-Sep-21 02:00N 59°45' W 147°05'2 2.3 13.2
2014-Sep-21 01:00N 59°46' W 147°01'1 1.1 13.1
2014-Sep-21 00:00N 59°47' W 146°60'2 2.3 13.1
2014-Sep-20 23:00N 59°49' W 146°57'2 1.6 13.2
2014-Sep-20 22:00N 59°50' W 146°56'1 1.2 13.0
2014-Sep-20 21:00N 59°51' W 146°55'1 1.2 13.0
2014-Sep-20 20:00N 59°52' W 146°56'1 0.7 13.0
2014-Sep-20 18:00N 59°53' W 146°58'0 0.0 12.8
2014-Sep-20 17:00N 59°53' W 146°58'0 0.2 12.8
2014-Sep-20 16:00N 59°53' W 146°58'0 0.4 12.9
2014-Sep-20 15:00N 59°54' W 146°59'0 0.3 12.9
2014-Sep-20 14:00N 59°54' W 146°59'1 0.5 12.9
2014-Sep-20 12:00N 59°54' W 147°00'1 1.0 12.9
2014-Sep-20 11:00N 59°55' W 146°60'4 3.7 13.0
2014-Sep-20 10:00N 59°59' W 146°60'1 0.2 13.0
2014-Sep-20 07:00N 59°60' W 146°59'0 0.0 13.1
2014-Sep-20 06:00N 59°60' W 146°59'1 0.6 13.4
2014-Sep-20 05:00N 59°60' W 146°58'1 0.7 13.4
2014-Sep-20 04:00N 59°59' W 146°59'2 0.9 13.3
2014-Sep-20 02:00N 59°58' W 147°02'2 1.6 13.2
2014-Sep-20 01:00N 59°57' W 147°05'1 0.7 13.2
2014-Sep-20 00:00N 59°57' W 147°06'2 2.1 13.2
2014-Sep-19 23:00N 59°57' W 147°10'2 2.1 13.2
2014-Sep-19 22:00N 59°59' W 147°10'1 0.9 13.2
2014-Sep-19 21:00N 59°59' W 147°09'2 1.6 13.2
2014-Sep-19 20:00N 60°00' W 147°07'2 2.2 13.1
2014-Sep-19 19:00N 60°01' W 147°11'1 0.9 13.1
2014-Sep-19 18:00N 60°01' W 147°09'0 0.0 13.1
2014-Sep-19 17:00N 60°01' W 147°09'2 1.8 13.1
2014-Sep-19 16:00N 60°03' W 147°11'0 0.0 13.1
2014-Sep-19 15:00N 60°03' W 147°11'0 0.4 13.1
2014-Sep-19 14:00N 60°03' W 147°10'0 0.3 13.1
2014-Sep-19 13:00N 60°03' W 147°09'1 1.2 13.2
2014-Sep-19 12:00N 60°04' W 147°07'6 6.2 13.2
2014-Sep-19 11:00N 60°08' W 146°58'0 0.0 13.2
2014-Sep-19 09:00N 60°08' W 146°58'4 0.9 13.2
2014-Sep-19 05:00N 60°11' W 146°53'3 1.3 13.4
2014-Sep-19 03:00N 60°11' W 146°48'8 4.0 13.5
2014-Sep-19 01:00N 60°11' W 146°32'3 2.7 13.6
2014-Sep-19 00:00N 60°12' W 146°27'2 1.5 13.6
2014-Sep-18 23:00N 60°12' W 146°24'5 4.9 13.7
2014-Sep-18 22:00N 60°13' W 146°14'2 1.0 13.6
2014-Sep-18 20:00N 60°14' W 146°11'0 0.0 13.6
2014-Sep-18 19:00N 60°14' W 146°11'4 3.6 13.6
2014-Sep-18 18:00N 60°14' W 146°04'4 4.2 13.6
2014-Sep-18 17:00N 60°14' W 145°55'0 0.0 13.6
2014-Sep-18 16:00N 60°14' W 145°55'2 2.2 13.5
2014-Sep-18 15:00N 60°14' W 145°51'3 1.5 13.5
2014-Sep-18 13:00N 60°14' W 145°45'4 1.8 13.5
2014-Sep-18 11:00N 60°13' W 145°37'5 2.7 13.5
2014-Sep-18 09:00N 60°11' W 145°27'3 1.4 13.4
2014-Sep-18 07:00N 60°10' W 145°22'0 0.0 13.4
2014-Sep-18 06:00N 60°10' W 145°22'1 0.9 13.4
2014-Sep-18 05:00N 60°10' W 145°20'0 0.0 13.5
2014-Sep-18 04:00N 60°10' W 145°20'1 0.6 13.4
2014-Sep-18 02:00N 60°10' W 145°18'1 0.6 13.4
2014-Sep-18 01:00N 60°09' W 145°18'0 0.0 13.4
2014-Sep-18 00:00N 60°09' W 145°18'0 0.4 13.4
2014-Sep-17 23:00N 60°09' W 145°17'1 0.5 13.4
2014-Sep-17 22:00N 60°08' W 145°17'0 0.3 13.4
2014-Sep-17 21:00N 60°08' W 145°16'0 0.4 13.4
2014-Sep-17 20:00N 60°08' W 145°16'0 0.3 13.4
2014-Sep-17 19:00N 60°08' W 145°16'0 0.5 13.4
2014-Sep-17 18:00N 60°08' W 145°15'0 0.2 13.4
2014-Sep-17 17:00N 60°08' W 145°15'0 0.4 13.4
2014-Sep-17 16:00N 60°08' W 145°16'0 0.1 13.4
2014-Sep-17 15:00N 60°07' W 145°16'0 0.4 13.4
2014-Sep-17 14:00N 60°07' W 145°16'1 0.7 13.5
2014-Sep-17 13:00N 60°06' W 145°16'1 1.0 13.4
2014-Sep-17 12:00N 60°07' W 145°14'1 1.3 13.5
2014-Sep-17 11:00N 60°06' W 145°16'1 1.0 13.6
2014-Sep-17 10:00N 60°06' W 145°14'1 0.4 13.6
2014-Sep-17 08:00N 60°07' W 145°14'0 0.0 13.6
2014-Sep-17 07:00N 60°07' W 145°14'1 1.2 13.6
2014-Sep-17 06:00N 60°08' W 145°13'0 0.0 13.6
2014-Sep-17 05:00N 60°08' W 145°13'1 0.5 13.6
2014-Sep-17 04:00N 60°08' W 145°14'0 0.3 13.6
2014-Sep-17 03:00N 60°08' W 145°14'2 0.9 13.8
2014-Sep-17 01:00N 60°07' W 145°17'1 1.3 13.6
2014-Sep-17 00:00N 60°05' W 145°17'1 1.1 13.6
2014-Sep-16 23:00N 60°06' W 145°15'0 0.1 13.7
2014-Sep-16 22:00N 60°06' W 145°16'0 0.3 13.8
2014-Sep-16 21:00N 60°06' W 145°15'0 0.1 13.9
2014-Sep-16 20:00N 60°06' W 145°15'0 0.2 13.9
2014-Sep-16 19:00N 60°06' W 145°15'2 0.9 13.9
2014-Sep-16 17:00N 60°06' W 145°19'0 0.0 13.8
2014-Sep-16 16:00N 60°06' W 145°19'1 0.6 13.7
2014-Sep-16 15:00N 60°07' W 145°19'1 1.1 13.8
2014-Sep-16 14:00N 60°07' W 145°21'1 0.8 13.5
2014-Sep-16 13:00N 60°08' W 145°22'1 1.4 13.5
2014-Sep-16 12:00N 60°08' W 145°25'7 3.5 13.4
2014-Sep-16 10:00N 60°07' W 145°39'0 0.0 13.5
2014-Sep-16 07:00N 60°07' W 145°39'4 2.2 13.5
2014-Sep-16 05:00N 60°03' W 145°44'1 0.3 13.5
2014-Sep-16 03:00N 60°03' W 145°43'0 0.0 13.5
2014-Sep-16 02:00N 60°03' W 145°43'6 2.9 13.5
2014-Sep-16 00:00N 59°57' W 145°45'3 2.7 13.5
2014-Sep-15 23:00N 59°55' W 145°44'3 2.5 13.5
2014-Sep-15 22:00N 59°52' W 145°45'12 6.0 13.5
2014-Sep-15 20:00N 59°43' W 145°30'0 0.0 13.4
2014-Sep-15 19:00N 59°43' W 145°30'0 0.0 13.4
2014-Sep-15 18:00N 59°43' W 145°30'0 0.0 13.3
2014-Sep-15 17:00N 59°43' W 145°30'1 1.2 13.3
2014-Sep-15 16:00N 59°42' W 145°29'2 2.1 13.3
2014-Sep-15 15:00N 59°40' W 145°26'2 2.5 13.3
2014-Sep-15 14:00N 59°39' W 145°22'3 3.1 13.2
2014-Sep-15 13:00N 59°38' W 145°16'0 0.1 13.3
2014-Sep-15 12:00N 59°38' W 145°16'4 1.9 13.2
2014-Sep-15 10:00N 59°37' W 145°09'7 2.3 13.2
2014-Sep-15 07:00N 59°38' W 144°55'4 3.5 12.9
2014-Sep-15 06:00N 59°39' W 144°48'16 4.0 13.0
2014-Sep-15 02:00N 59°47' W 144°21'2 0.8 13.4
2014-Sep-15 00:00N 59°48' W 144°21'2 2.5 13.5
2014-Sep-14 23:00N 59°51' W 144°18'2 2.0 13.2
2014-Sep-14 22:00N 59°52' W 144°15'5 4.6 12.9
2014-Sep-14 21:00N 59°55' W 144°08'0 0.0 13.4
2014-Sep-14 20:00N 59°55' W 144°08'12 6.2 13.7
2014-Sep-14 18:00N 59°58' W 143°44'0 0.0 13.8
2014-Sep-14 17:00N 59°58' W 143°44'1 0.7 13.8
2014-Sep-14 16:00N 59°58' W 143°42'3 2.8 13.9
2014-Sep-14 15:00N 59°58' W 143°37'1 1.4 14.0
2014-Sep-14 14:00N 59°58' W 143°34'2 2.1 14.0
2014-Sep-14 13:00N 59°58' W 143°30'1 1.4 14.0
2014-Sep-14 12:00N 59°58' W 143°27'3 2.8 14.0
2014-Sep-14 11:00N 59°58' W 143°21'3 3.3 13.9
2014-Sep-14 10:00N 59°58' W 143°15'2 0.6 13.8
2014-Sep-14 07:00N 59°57' W 143°11'2 2.2 13.5
2014-Sep-14 06:00N 59°57' W 143°07'2 1.7 13.6
2014-Sep-14 05:00N 59°57' W 143°03'0 0.2 13.6
2014-Sep-14 04:00N 59°57' W 143°03'1 0.9 13.5
2014-Sep-14 03:00N 59°56' W 143°03'0 0.1 13.5
2014-Sep-14 02:00N 59°56' W 143°03'1 1.3 13.4
2014-Sep-14 01:00N 59°55' W 143°00'1 1.4 13.5
2014-Sep-14 00:00N 59°55' W 142°58'1 1.1 13.7
2014-Sep-13 23:00N 59°54' W 142°56'1 0.7 13.7
2014-Sep-13 22:00N 59°54' W 142°55'2 1.7 13.8
2014-Sep-13 21:00N 59°53' W 142°52'5 2.5 13.8
2014-Sep-13 19:00N 59°51' W 142°43'0 0.1 13.7
2014-Sep-13 18:00N 59°51' W 142°43'0 0.0 13.7
2014-Sep-13 17:00N 59°51' W 142°43'1 1.2 13.8
2014-Sep-13 16:00N 59°50' W 142°41'2 1.8 13.8
2014-Sep-13 15:00N 59°50' W 142°38'1 1.3 13.9
2014-Sep-13 14:00N 59°49' W 142°36'1 1.3 13.9
2014-Sep-13 13:00N 59°49' W 142°33'2 0.8 13.9
2014-Sep-13 10:00N 59°48' W 142°29'4 1.9 13.9
2014-Sep-13 08:00N 59°47' W 142°22'6 2.1 13.8
2014-Sep-13 05:00N 59°46' W 142°10'0 0.0 13.8
2014-Sep-13 04:00N 59°46' W 142°10'2 1.9 13.8
2014-Sep-13 03:00N 59°46' W 142°06'2 1.7 14.0
2014-Sep-13 02:00N 59°46' W 142°03'1 1.0 14.1
2014-Sep-13 01:00N 59°45' W 142°01'3 2.7 14.2
2014-Sep-13 00:00N 59°45' W 141°56'2 0.9 14.1
2014-Sep-12 22:00N 59°44' W 141°53'0 0.2 14.3
2014-Sep-12 21:00N 59°43' W 141°53'2 2.3 14.4
2014-Sep-12 20:00N 59°43' W 141°49'4 3.7 14.4
2014-Sep-12 19:00N 59°42' W 141°42'0 0.0 14.4
2014-Sep-12 18:00N 59°42' W 141°42'0 0.3 14.5
2014-Sep-12 17:00N 59°42' W 141°41'2 1.7 14.5
2014-Sep-12 16:00N 59°42' W 141°38'   14.5
Track history (hours):
 
Tides and Currents Weather Stations Pressure Air Temp Water Temp Dewpoint Dewpoint Depression Visibility Wind Speed Wind Dir Waves Ship Positions

Drifting buoy 46562

Last reported at 2014-Sep-22 16:00 UTC. Time now 2014-Sep-22 18:20 UTC.
Position N 59°44' W 148°05'.

Water temperature 13.0 ° C

Date/timePositionNaut miles runAvg speedWind from/ knotsBaromVisibWave heightAir tempDewpointWater temp
2014-Sep-22 16:00N 59°44' W 148°05'4 3.8 13.0
2014-Sep-22 15:00N 59°42' W 147°59'2 2.5 12.9
2014-Sep-22 14:00N 59°42' W 147°54'0 0.2 12.7
2014-Sep-22 13:00N 59°42' W 147°54'0 0.1 12.7
2014-Sep-22 12:00N 59°42' W 147°54'1 1.2 12.7
2014-Sep-22 11:00N 59°43' W 147°52'1 0.4 12.8
2014-Sep-22 08:00N 59°42' W 147°51'3 0.9 12.9
2014-Sep-22 04:00N 59°42' W 147°44'0 0.0 13.1
2014-Sep-22 02:00N 59°42' W 147°44'1 1.2 13.1
2014-Sep-22 01:00N 59°42' W 147°42'0 0.3 13.2
2014-Sep-22 00:00N 59°42' W 147°42'0 0.5 13.2
2014-Sep-21 23:00N 59°43' W 147°42'1 1.3 13.2
2014-Sep-21 22:00N 59°42' W 147°44'0 0.4 13.1
2014-Sep-21 21:00N 59°42' W 147°45'5 2.3 13.0
2014-Sep-21 19:00N 59°38' W 147°42'0 0.1 12.9
2014-Sep-21 18:00N 59°38' W 147°42'1 0.9 13.0
2014-Sep-21 17:00N 59°37' W 147°41'0 0.1 13.0
2014-Sep-21 16:00N 59°37' W 147°41'3 2.9 12.9
2014-Sep-21 15:00N 59°37' W 147°35'2 2.1 12.9
2014-Sep-21 14:00N 59°38' W 147°31'1 1.3 12.9
2014-Sep-21 13:00N 59°39' W 147°29'0 0.5 13.0
2014-Sep-21 12:00N 59°38' W 147°28'9 1.5 13.0
2014-Sep-21 06:00N 59°44' W 147°13'2 1.8 13.1
2014-Sep-21 05:00N 59°44' W 147°10'1 0.6 13.1
2014-Sep-21 03:00N 59°45' W 147°08'1 1.2 13.1
2014-Sep-21 02:00N 59°45' W 147°05'2 2.3 13.2
2014-Sep-21 01:00N 59°46' W 147°01'1 1.1 13.1
2014-Sep-21 00:00N 59°47' W 146°60'2 2.3 13.1
2014-Sep-20 23:00N 59°49' W 146°57'2 1.6 13.2
2014-Sep-20 22:00N 59°50' W 146°56'1 1.2 13.0
2014-Sep-20 21:00N 59°51' W 146°55'1 1.2 13.0
2014-Sep-20 20:00N 59°52' W 146°56'1 0.7 13.0
2014-Sep-20 18:00N 59°53' W 146°58'0 0.0 12.8
2014-Sep-20 17:00N 59°53' W 146°58'0 0.2 12.8
2014-Sep-20 16:00N 59°53' W 146°58'0 0.4 12.9
2014-Sep-20 15:00N 59°54' W 146°59'0 0.3 12.9
2014-Sep-20 14:00N 59°54' W 146°59'1 0.5 12.9
2014-Sep-20 12:00N 59°54' W 147°00'1 1.0 12.9
2014-Sep-20 11:00N 59°55' W 146°60'4 3.7 13.0
2014-Sep-20 10:00N 59°59' W 146°60'1 0.2 13.0
2014-Sep-20 07:00N 59°60' W 146°59'0 0.0 13.1
2014-Sep-20 06:00N 59°60' W 146°59'1 0.6 13.4
2014-Sep-20 05:00N 59°60' W 146°58'1 0.7 13.4
2014-Sep-20 04:00N 59°59' W 146°59'2 0.9 13.3
2014-Sep-20 02:00N 59°58' W 147°02'2 1.6 13.2
2014-Sep-20 01:00N 59°57' W 147°05'1 0.7 13.2
2014-Sep-20 00:00N 59°57' W 147°06'2 2.1 13.2
2014-Sep-19 23:00N 59°57' W 147°10'2 2.1 13.2
2014-Sep-19 22:00N 59°59' W 147°10'1 0.9 13.2
2014-Sep-19 21:00N 59°59' W 147°09'2 1.6 13.2
2014-Sep-19 20:00N 60°00' W 147°07'2 2.2 13.1
2014-Sep-19 19:00N 60°01' W 147°11'1 0.9 13.1
2014-Sep-19 18:00N 60°01' W 147°09'0 0.0 13.1
2014-Sep-19 17:00N 60°01' W 147°09'2 1.8 13.1
2014-Sep-19 16:00N 60°03' W 147°11'0 0.0 13.1
2014-Sep-19 15:00N 60°03' W 147°11'0 0.4 13.1
2014-Sep-19 14:00N 60°03' W 147°10'0 0.3 13.1
2014-Sep-19 13:00N 60°03' W 147°09'1 1.2 13.2
2014-Sep-19 12:00N 60°04' W 147°07'6 6.2 13.2
2014-Sep-19 11:00N 60°08' W 146°58'0 0.0 13.2
2014-Sep-19 09:00N 60°08' W 146°58'4 0.9 13.2
2014-Sep-19 05:00N 60°11' W 146°53'3 1.3 13.4
2014-Sep-19 03:00N 60°11' W 146°48'8 4.0 13.5
2014-Sep-19 01:00N 60°11' W 146°32'3 2.7 13.6
2014-Sep-19 00:00N 60°12' W 146°27'2 1.5 13.6
2014-Sep-18 23:00N 60°12' W 146°24'5 4.9 13.7
2014-Sep-18 22:00N 60°13' W 146°14'2 1.0 13.6
2014-Sep-18 20:00N 60°14' W 146°11'0 0.0 13.6
2014-Sep-18 19:00N 60°14' W 146°11'4 3.6 13.6
2014-Sep-18 18:00N 60°14' W 146°04'4 4.2 13.6
2014-Sep-18 17:00N 60°14' W 145°55'0 0.0 13.6
2014-Sep-18 16:00N 60°14' W 145°55'2 2.2 13.5
2014-Sep-18 15:00N 60°14' W 145°51'3 1.5 13.5
2014-Sep-18 13:00N 60°14' W 145°45'4 1.8 13.5
2014-Sep-18 11:00N 60°13' W 145°37'5 2.7 13.5
2014-Sep-18 09:00N 60°11' W 145°27'3 1.4 13.4
2014-Sep-18 07:00N 60°10' W 145°22'0 0.0 13.4
2014-Sep-18 06:00N 60°10' W 145°22'1 0.9 13.4
2014-Sep-18 05:00N 60°10' W 145°20'0 0.0 13.5
2014-Sep-18 04:00N 60°10' W 145°20'1 0.6 13.4
2014-Sep-18 02:00N 60°10' W 145°18'1 0.6 13.4
2014-Sep-18 01:00N 60°09' W 145°18'0 0.0 13.4
2014-Sep-18 00:00N 60°09' W 145°18'0 0.4 13.4
2014-Sep-17 23:00N 60°09' W 145°17'1 0.5 13.4
2014-Sep-17 22:00N 60°08' W 145°17'0 0.3 13.4
2014-Sep-17 21:00N 60°08' W 145°16'0 0.4 13.4
2014-Sep-17 20:00N 60°08' W 145°16'0 0.3 13.4
2014-Sep-17 19:00N 60°08' W 145°16'0 0.5 13.4
2014-Sep-17 18:00N 60°08' W 145°15'0 0.2 13.4
2014-Sep-17 17:00N 60°08' W 145°15'0 0.4 13.4
2014-Sep-17 16:00N 60°08' W 145°16'0 0.1 13.4
2014-Sep-17 15:00N 60°07' W 145°16'0 0.4 13.4
2014-Sep-17 14:00N 60°07' W 145°16'1 0.7 13.5
2014-Sep-17 13:00N 60°06' W 145°16'1 1.0 13.4
2014-Sep-17 12:00N 60°07' W 145°14'1 1.3 13.5
2014-Sep-17 11:00N 60°06' W 145°16'1 1.0 13.6
2014-Sep-17 10:00N 60°06' W 145°14'1 0.4 13.6
2014-Sep-17 08:00N 60°07' W 145°14'0 0.0 13.6
2014-Sep-17 07:00N 60°07' W 145°14'1 1.2 13.6
2014-Sep-17 06:00N 60°08' W 145°13'0 0.0 13.6
2014-Sep-17 05:00N 60°08' W 145°13'1 0.5 13.6
2014-Sep-17 04:00N 60°08' W 145°14'0 0.3 13.6
2014-Sep-17 03:00N 60°08' W 145°14'2 0.9 13.8
2014-Sep-17 01:00N 60°07' W 145°17'1 1.3 13.6
2014-Sep-17 00:00N 60°05' W 145°17'1 1.1 13.6
2014-Sep-16 23:00N 60°06' W 145°15'0 0.1 13.7
2014-Sep-16 22:00N 60°06' W 145°16'0 0.3 13.8
2014-Sep-16 21:00N 60°06' W 145°15'0 0.1 13.9
2014-Sep-16 20:00N 60°06' W 145°15'0 0.2 13.9
2014-Sep-16 19:00N 60°06' W 145°15'2 0.9 13.9
2014-Sep-16 17:00N 60°06' W 145°19'0 0.0 13.8
2014-Sep-16 16:00N 60°06' W 145°19'1 0.6 13.7
2014-Sep-16 15:00N 60°07' W 145°19'1 1.1 13.8
2014-Sep-16 14:00N 60°07' W 145°21'1 0.8 13.5
2014-Sep-16 13:00N 60°08' W 145°22'1 1.4 13.5
2014-Sep-16 12:00N 60°08' W 145°25'7 3.5 13.4
2014-Sep-16 10:00N 60°07' W 145°39'0 0.0 13.5
2014-Sep-16 07:00N 60°07' W 145°39'4 2.2 13.5
2014-Sep-16 05:00N 60°03' W 145°44'1 0.3 13.5
2014-Sep-16 03:00N 60°03' W 145°43'0 0.0 13.5
2014-Sep-16 02:00N 60°03' W 145°43'6 2.9 13.5
2014-Sep-16 00:00N 59°57' W 145°45'3 2.7 13.5
2014-Sep-15 23:00N 59°55' W 145°44'3 2.5 13.5
2014-Sep-15 22:00N 59°52' W 145°45'12 6.0 13.5
2014-Sep-15 20:00N 59°43' W 145°30'0 0.0 13.4
2014-Sep-15 19:00N 59°43' W 145°30'0 0.0 13.4
2014-Sep-15 18:00N 59°43' W 145°30'0 0.0 13.3
2014-Sep-15 17:00N 59°43' W 145°30'1 1.2 13.3
2014-Sep-15 16:00N 59°42' W 145°29'2 2.1 13.3
2014-Sep-15 15:00N 59°40' W 145°26'2 2.5 13.3
2014-Sep-15 14:00N 59°39' W 145°22'3 3.1 13.2
2014-Sep-15 13:00N 59°38' W 145°16'0 0.1 13.3
2014-Sep-15 12:00N 59°38' W 145°16'4 1.9 13.2
2014-Sep-15 10:00N 59°37' W 145°09'7 2.3 13.2
2014-Sep-15 07:00N 59°38' W 144°55'4 3.5 12.9
2014-Sep-15 06:00N 59°39' W 144°48'16 4.0 13.0
2014-Sep-15 02:00N 59°47' W 144°21'2 0.8 13.4
2014-Sep-15 00:00N 59°48' W 144°21'2 2.5 13.5
2014-Sep-14 23:00N 59°51' W 144°18'2 2.0 13.2
2014-Sep-14 22:00N 59°52' W 144°15'5 4.6 12.9
2014-Sep-14 21:00N 59°55' W 144°08'0 0.0 13.4
2014-Sep-14 20:00N 59°55' W 144°08'12 6.2 13.7
2014-Sep-14 18:00N 59°58' W 143°44'0 0.0 13.8
2014-Sep-14 17:00N 59°58' W 143°44'1 0.7 13.8
2014-Sep-14 16:00N 59°58' W 143°42'3 2.8 13.9
2014-Sep-14 15:00N 59°58' W 143°37'1 1.4 14.0
2014-Sep-14 14:00N 59°58' W 143°34'2 2.1 14.0
2014-Sep-14 13:00N 59°58' W 143°30'1 1.4 14.0
2014-Sep-14 12:00N 59°58' W 143°27'3 2.8 14.0
2014-Sep-14 11:00N 59°58' W 143°21'3 3.3 13.9
2014-Sep-14 10:00N 59°58' W 143°15'2 0.6 13.8
2014-Sep-14 07:00N 59°57' W 143°11'2 2.2 13.5
2014-Sep-14 06:00N 59°57' W 143°07'2 1.7 13.6
2014-Sep-14 05:00N 59°57' W 143°03'0 0.2 13.6
2014-Sep-14 04:00N 59°57' W 143°03'1 0.9 13.5
2014-Sep-14 03:00N 59°56' W 143°03'0 0.1 13.5
2014-Sep-14 02:00N 59°56' W 143°03'1 1.3 13.4
2014-Sep-14 01:00N 59°55' W 143°00'1 1.4 13.5
2014-Sep-14 00:00N 59°55' W 142°58'1 1.1 13.7
2014-Sep-13 23:00N 59°54' W 142°56'1 0.7 13.7
2014-Sep-13 22:00N 59°54' W 142°55'2 1.7 13.8
2014-Sep-13 21:00N 59°53' W 142°52'5 2.5 13.8
2014-Sep-13 19:00N 59°51' W 142°43'0 0.1 13.7
2014-Sep-13 18:00N 59°51' W 142°43'0 0.0 13.7
2014-Sep-13 17:00N 59°51' W 142°43'1 1.2 13.8
2014-Sep-13 16:00N 59°50' W 142°41'2 1.8 13.8
2014-Sep-13 15:00N 59°50' W 142°38'1 1.3 13.9
2014-Sep-13 14:00N 59°49' W 142°36'1 1.3 13.9
2014-Sep-13 13:00N 59°49' W 142°33'2 0.8 13.9
2014-Sep-13 10:00N 59°48' W 142°29'4 1.9 13.9
2014-Sep-13 08:00N 59°47' W 142°22'6 2.1 13.8
2014-Sep-13 05:00N 59°46' W 142°10'0 0.0 13.8
2014-Sep-13 04:00N 59°46' W 142°10'2 1.9 13.8
2014-Sep-13 03:00N 59°46' W 142°06'2 1.7 14.0
2014-Sep-13 02:00N 59°46' W 142°03'1 1.0 14.1
2014-Sep-13 01:00N 59°45' W 142°01'3 2.7 14.2
2014-Sep-13 00:00N 59°45' W 141°56'2 0.9 14.1
2014-Sep-12 22:00N 59°44' W 141°53'0 0.2 14.3
2014-Sep-12 21:00N 59°43' W 141°53'2 2.3 14.4
2014-Sep-12 20:00N 59°43' W 141°49'4 3.7 14.4
2014-Sep-12 19:00N 59°42' W 141°42'0 0.0 14.4
2014-Sep-12 18:00N 59°42' W 141°42'0 0.3 14.5
2014-Sep-12 17:00N 59°42' W 141°41'2 1.7 14.5
2014-Sep-12 16:00N 59°42' W 141°38'   14.5

Dump ship's entire track history